sensor_id;sensor_type;location;lat;lon;timestamp;P1;durP1;ratioP1;P2;durP2;ratioP2
32365;SDS011;18837;46.832;16.838;2023-04-07T00:00:04;4.27;;;3.57;;
32365;SDS011;18837;46.832;16.838;2023-04-07T00:02:30;5.33;;;4.07;;
32365;SDS011;18837;46.832;16.838;2023-04-07T00:04:57;5.73;;;3.90;;
32365;SDS011;18837;46.832;16.838;2023-04-07T00:07:22;5.70;;;3.93;;
32365;SDS011;18837;46.832;16.838;2023-04-07T00:09:48;4.33;;;3.80;;
32365;SDS011;18837;46.832;16.838;2023-04-07T00:12:14;4.90;;;3.97;;
32365;SDS011;18837;46.832;16.838;2023-04-07T00:20:15;4.90;;;3.80;;
32365;SDS011;18837;46.832;16.838;2023-04-07T00:22:41;5.40;;;3.93;;
32365;SDS011;18837;46.832;16.838;2023-04-07T00:25:07;4.43;;;3.90;;
32365;SDS011;18837;46.832;16.838;2023-04-07T00:27:33;4.20;;;3.60;;
32365;SDS011;18837;46.832;16.838;2023-04-07T00:29:58;5.10;;;4.27;;
32365;SDS011;18837;46.832;16.838;2023-04-07T00:32:36;5.33;;;4.20;;
32365;SDS011;18837;46.832;16.838;2023-04-07T00:35:02;4.50;;;4.10;;
32365;SDS011;18837;46.832;16.838;2023-04-07T00:37:28;6.30;;;4.10;;
32365;SDS011;18837;46.832;16.838;2023-04-07T00:39:54;6.03;;;4.30;;
32365;SDS011;18837;46.832;16.838;2023-04-07T00:42:21;5.77;;;4.00;;
32365;SDS011;18837;46.832;16.838;2023-04-07T00:44:46;5.13;;;3.80;;
32365;SDS011;18837;46.832;16.838;2023-04-07T00:47:12;6.50;;;4.10;;
32365;SDS011;18837;46.832;16.838;2023-04-07T00:55:49;5.40;;;4.27;;
32365;SDS011;18837;46.832;16.838;2023-04-07T00:58:15;5.77;;;4.30;;
32365;SDS011;18837;46.832;16.838;2023-04-07T01:03:34;5.20;;;4.23;;
32365;SDS011;18837;46.832;16.838;2023-04-07T01:06:08;4.87;;;4.10;;
32365;SDS011;18837;46.832;16.838;2023-04-07T01:14:21;7.07;;;5.00;;
32365;SDS011;18837;46.832;16.838;2023-04-07T01:16:49;5.83;;;4.47;;
32365;SDS011;18837;46.832;16.838;2023-04-07T01:29:03;6.23;;;5.30;;
32365;SDS011;18837;46.832;16.838;2023-04-07T01:31:50;7.77;;;4.90;;
32365;SDS011;18837;46.832;16.838;2023-04-07T01:34:21;5.63;;;5.00;;
32365;SDS011;18837;46.832;16.838;2023-04-07T01:36:49;5.43;;;4.53;;
32365;SDS011;18837;46.832;16.838;2023-04-07T01:39:16;5.17;;;4.60;;
32365;SDS011;18837;46.832;16.838;2023-04-07T01:41:52;6.23;;;5.23;;
32365;SDS011;18837;46.832;16.838;2023-04-07T01:44:19;6.77;;;5.20;;
32365;SDS011;18837;46.832;16.838;2023-04-07T01:46:47;6.80;;;5.10;;
32365;SDS011;18837;46.832;16.838;2023-04-07T01:49:15;6.00;;;5.10;;
32365;SDS011;18837;46.832;16.838;2023-04-07T01:51:41;7.13;;;5.20;;
32365;SDS011;18837;46.832;16.838;2023-04-07T01:54:08;7.00;;;5.23;;
32365;SDS011;18837;46.832;16.838;2023-04-07T01:56:35;6.40;;;5.23;;
32365;SDS011;18837;46.832;16.838;2023-04-07T01:59:16;6.13;;;5.10;;
32365;SDS011;18837;46.832;16.838;2023-04-07T02:02:00;6.90;;;5.00;;
32365;SDS011;18837;46.832;16.838;2023-04-07T02:07:27;6.93;;;5.87;;
32365;SDS011;18837;46.832;16.838;2023-04-07T02:09:56;7.43;;;5.53;;
32365;SDS011;18837;46.832;16.838;2023-04-07T02:12:25;6.53;;;5.83;;
32365;SDS011;18837;46.832;16.838;2023-04-07T02:14:54;7.13;;;5.57;;
32365;SDS011;18837;46.832;16.838;2023-04-07T02:17:26;6.80;;;6.07;;
32365;SDS011;18837;46.832;16.838;2023-04-07T02:19:54;7.37;;;5.57;;
32365;SDS011;18837;46.832;16.838;2023-04-07T02:22:22;9.17;;;6.50;;
32365;SDS011;18837;46.832;16.838;2023-04-07T02:24:47;8.73;;;6.43;;
32365;SDS011;18837;46.832;16.838;2023-04-07T02:27:13;7.07;;;5.87;;
32365;SDS011;18837;46.832;16.838;2023-04-07T02:29:39;7.73;;;6.13;;
32365;SDS011;18837;46.832;16.838;2023-04-07T02:37:52;8.97;;;5.77;;
32365;SDS011;18837;46.832;16.838;2023-04-07T02:40:18;6.50;;;5.77;;
32365;SDS011;18837;46.832;16.838;2023-04-07T02:42:43;7.43;;;6.20;;
32365;SDS011;18837;46.832;16.838;2023-04-07T02:45:10;8.50;;;6.53;;
32365;SDS011;18837;46.832;16.838;2023-04-07T02:47:36;7.00;;;5.80;;
32365;SDS011;18837;46.832;16.838;2023-04-07T02:50:03;7.50;;;5.93;;
32365;SDS011;18837;46.832;16.838;2023-04-07T02:52:32;7.17;;;5.53;;
32365;SDS011;18837;46.832;16.838;2023-04-07T02:55:01;7.73;;;5.87;;
32365;SDS011;18837;46.832;16.838;2023-04-07T02:57:27;7.37;;;6.53;;
32365;SDS011;18837;46.832;16.838;2023-04-07T02:59:53;7.50;;;6.03;;
32365;SDS011;18837;46.832;16.838;2023-04-07T03:02:20;8.67;;;5.93;;
32365;SDS011;18837;46.832;16.838;2023-04-07T03:04:46;7.13;;;5.77;;
32365;SDS011;18837;46.832;16.838;2023-04-07T03:10:16;6.57;;;5.60;;
32365;SDS011;18837;46.832;16.838;2023-04-07T03:12:45;8.57;;;5.83;;
32365;SDS011;18837;46.832;16.838;2023-04-07T03:15:13;6.80;;;5.60;;
32365;SDS011;18837;46.832;16.838;2023-04-07T03:17:39;6.83;;;5.60;;
32365;SDS011;18837;46.832;16.838;2023-04-07T03:20:05;6.07;;;5.10;;
32365;SDS011;18837;46.832;16.838;2023-04-07T03:22:31;7.17;;;5.93;;
32365;SDS011;18837;46.832;16.838;2023-04-07T03:24:57;8.27;;;6.20;;
32365;SDS011;18837;46.832;16.838;2023-04-07T03:27:23;8.03;;;6.03;;
32365;SDS011;18837;46.832;16.838;2023-04-07T03:29:48;6.80;;;6.10;;
32365;SDS011;18837;46.832;16.838;2023-04-07T03:32:15;6.87;;;5.20;;
32365;SDS011;18837;46.832;16.838;2023-04-07T03:34:41;6.90;;;5.93;;
32365;SDS011;18837;46.832;16.838;2023-04-07T03:37:06;6.63;;;5.50;;
32365;SDS011;18837;46.832;16.838;2023-04-07T03:39:32;6.30;;;5.70;;
32365;SDS011;18837;46.832;16.838;2023-04-07T03:42:06;7.60;;;5.63;;
32365;SDS011;18837;46.832;16.838;2023-04-07T03:44:37;6.97;;;5.80;;
32365;SDS011;18837;46.832;16.838;2023-04-07T03:47:04;8.00;;;5.93;;
32365;SDS011;18837;46.832;16.838;2023-04-07T03:49:30;7.03;;;5.80;;
32365;SDS011;18837;46.832;16.838;2023-04-07T03:51:56;8.00;;;5.50;;
32365;SDS011;18837;46.832;16.838;2023-04-07T03:54:22;7.00;;;6.00;;
32365;SDS011;18837;46.832;16.838;2023-04-07T03:56:48;6.60;;;5.37;;
32365;SDS011;18837;46.832;16.838;2023-04-07T03:59:13;6.60;;;5.33;;
32365;SDS011;18837;46.832;16.838;2023-04-07T04:01:39;8.07;;;5.87;;
32365;SDS011;18837;46.832;16.838;2023-04-07T04:04:05;7.00;;;6.07;;
32365;SDS011;18837;46.832;16.838;2023-04-07T04:06:31;7.37;;;5.90;;
32365;SDS011;18837;46.832;16.838;2023-04-07T04:08:57;6.83;;;5.53;;
32365;SDS011;18837;46.832;16.838;2023-04-07T04:11:22;6.93;;;5.67;;
32365;SDS011;18837;46.832;16.838;2023-04-07T04:13:48;8.17;;;5.97;;
32365;SDS011;18837;46.832;16.838;2023-04-07T04:16:14;7.10;;;5.20;;
32365;SDS011;18837;46.832;16.838;2023-04-07T04:18:45;6.50;;;5.57;;
32365;SDS011;18837;46.832;16.838;2023-04-07T04:21:12;6.30;;;5.37;;
32365;SDS011;18837;46.832;16.838;2023-04-07T04:23:38;6.83;;;5.67;;
32365;SDS011;18837;46.832;16.838;2023-04-07T04:26:04;7.20;;;5.90;;
32365;SDS011;18837;46.832;16.838;2023-04-07T04:28:29;5.93;;;5.33;;
32365;SDS011;18837;46.832;16.838;2023-04-07T04:30:55;6.53;;;5.57;;
32365;SDS011;18837;46.832;16.838;2023-04-07T04:33:21;7.33;;;5.40;;
32365;SDS011;18837;46.832;16.838;2023-04-07T04:35:48;8.50;;;5.83;;
32365;SDS011;18837;46.832;16.838;2023-04-07T04:38:14;6.20;;;5.23;;
32365;SDS011;18837;46.832;16.838;2023-04-07T04:40:40;7.03;;;5.27;;
32365;SDS011;18837;46.832;16.838;2023-04-07T04:43:06;6.20;;;5.60;;
32365;SDS011;18837;46.832;16.838;2023-04-07T04:45:33;5.97;;;5.10;;
32365;SDS011;18837;46.832;16.838;2023-04-07T04:47:59;6.33;;;5.40;;
32365;SDS011;18837;46.832;16.838;2023-04-07T04:53:34;8.03;;;5.00;;
32365;SDS011;18837;46.832;16.838;2023-04-07T04:56:00;7.33;;;5.40;;
32365;SDS011;18837;46.832;16.838;2023-04-07T04:58:26;6.50;;;5.27;;
32365;SDS011;18837;46.832;16.838;2023-04-07T05:00:54;6.17;;;5.23;;
32365;SDS011;18837;46.832;16.838;2023-04-07T05:03:24;7.40;;;5.50;;
32365;SDS011;18837;46.832;16.838;2023-04-07T05:05:50;6.10;;;5.40;;
32365;SDS011;18837;46.832;16.838;2023-04-07T05:08:21;6.20;;;5.23;;
32365;SDS011;18837;46.832;16.838;2023-04-07T05:10:51;6.57;;;5.33;;
32365;SDS011;18837;46.832;16.838;2023-04-07T05:13:17;7.67;;;5.43;;
32365;SDS011;18837;46.832;16.838;2023-04-07T05:15:42;6.27;;;5.20;;
32365;SDS011;18837;46.832;16.838;2023-04-07T05:18:08;6.67;;;5.70;;
32365;SDS011;18837;46.832;16.838;2023-04-07T05:20:34;6.90;;;4.97;;
32365;SDS011;18837;46.832;16.838;2023-04-07T05:23:00;6.60;;;5.30;;
32365;SDS011;18837;46.832;16.838;2023-04-07T05:25:27;7.20;;;5.17;;
32365;SDS011;18837;46.832;16.838;2023-04-07T05:27:57;6.37;;;5.37;;
32365;SDS011;18837;46.832;16.838;2023-04-07T05:30:23;7.37;;;5.30;;
32365;SDS011;18837;46.832;16.838;2023-04-07T05:32:51;6.07;;;5.00;;
32365;SDS011;18837;46.832;16.838;2023-04-07T05:35:17;8.00;;;5.97;;
32365;SDS011;18837;46.832;16.838;2023-04-07T05:37:43;7.40;;;5.07;;
32365;SDS011;18837;46.832;16.838;2023-04-07T05:40:09;6.40;;;4.90;;
32365;SDS011;18837;46.832;16.838;2023-04-07T05:42:38;7.87;;;5.17;;
32365;SDS011;18837;46.832;16.838;2023-04-07T05:45:04;5.40;;;4.73;;
32365;SDS011;18837;46.832;16.838;2023-04-07T05:47:30;6.43;;;4.80;;
32365;SDS011;18837;46.832;16.838;2023-04-07T05:49:56;6.10;;;5.00;;
32365;SDS011;18837;46.832;16.838;2023-04-07T05:52:21;7.07;;;5.50;;
32365;SDS011;18837;46.832;16.838;2023-04-07T05:54:47;8.00;;;5.13;;
32365;SDS011;18837;46.832;16.838;2023-04-07T05:57:13;8.83;;;5.37;;
32365;SDS011;18837;46.832;16.838;2023-04-07T05:59:40;6.03;;;4.90;;
32365;SDS011;18837;46.832;16.838;2023-04-07T06:02:19;6.43;;;5.20;;
32365;SDS011;18837;46.832;16.838;2023-04-07T06:04:44;6.53;;;4.80;;
32365;SDS011;18837;46.832;16.838;2023-04-07T06:07:10;7.40;;;5.33;;
32365;SDS011;18837;46.832;16.838;2023-04-07T06:09:36;6.67;;;5.10;;
32365;SDS011;18837;46.832;16.838;2023-04-07T06:12:02;7.70;;;5.87;;
32365;SDS011;18837;46.832;16.838;2023-04-07T06:14:30;7.13;;;5.40;;
32365;SDS011;18837;46.832;16.838;2023-04-07T06:16:57;6.63;;;5.03;;
32365;SDS011;18837;46.832;16.838;2023-04-07T06:19:30;6.50;;;5.43;;
32365;SDS011;18837;46.832;16.838;2023-04-07T06:21:56;7.30;;;4.73;;
32365;SDS011;18837;46.832;16.838;2023-04-07T06:24:22;5.90;;;5.27;;
32365;SDS011;18837;46.832;16.838;2023-04-07T06:26:49;6.00;;;4.67;;
32365;SDS011;18837;46.832;16.838;2023-04-07T06:29:18;6.00;;;4.50;;
32365;SDS011;18837;46.832;16.838;2023-04-07T06:31:44;6.23;;;5.33;;
32365;SDS011;18837;46.832;16.838;2023-04-07T06:34:11;5.83;;;5.23;;
32365;SDS011;18837;46.832;16.838;2023-04-07T06:36:37;7.00;;;5.30;;
32365;SDS011;18837;46.832;16.838;2023-04-07T06:39:03;5.83;;;4.60;;
32365;SDS011;18837;46.832;16.838;2023-04-07T06:41:29;6.17;;;5.47;;
32365;SDS011;18837;46.832;16.838;2023-04-07T06:43:55;7.13;;;5.40;;
32365;SDS011;18837;46.832;16.838;2023-04-07T06:46:21;7.33;;;5.60;;
32365;SDS011;18837;46.832;16.838;2023-04-07T06:48:47;5.40;;;4.60;;
32365;SDS011;18837;46.832;16.838;2023-04-07T06:51:13;11.83;;;5.53;;
32365;SDS011;18837;46.832;16.838;2023-04-07T06:53:44;5.83;;;4.57;;
32365;SDS011;18837;46.832;16.838;2023-04-07T06:56:12;6.13;;;4.80;;
32365;SDS011;18837;46.832;16.838;2023-04-07T06:58:38;6.53;;;5.20;;
32365;SDS011;18837;46.832;16.838;2023-04-07T07:01:04;7.50;;;5.33;;
32365;SDS011;18837;46.832;16.838;2023-04-07T07:03:30;5.67;;;5.00;;
32365;SDS011;18837;46.832;16.838;2023-04-07T07:05:57;5.97;;;5.07;;
32365;SDS011;18837;46.832;16.838;2023-04-07T07:11:32;7.40;;;5.53;;
32365;SDS011;18837;46.832;16.838;2023-04-07T07:13:58;8.27;;;5.60;;
32365;SDS011;18837;46.832;16.838;2023-04-07T07:16:24;7.03;;;5.27;;
32365;SDS011;18837;46.832;16.838;2023-04-07T07:18:50;6.93;;;4.80;;
32365;SDS011;18837;46.832;16.838;2023-04-07T07:21:17;5.47;;;4.30;;
32365;SDS011;18837;46.832;16.838;2023-04-07T07:23:43;6.27;;;5.23;;
32365;SDS011;18837;46.832;16.838;2023-04-07T07:28:59;6.27;;;4.90;;
32365;SDS011;18837;46.832;16.838;2023-04-07T07:31:25;8.17;;;5.20;;
32365;SDS011;18837;46.832;16.838;2023-04-07T07:33:51;8.17;;;5.67;;
32365;SDS011;18837;46.832;16.838;2023-04-07T07:36:17;7.07;;;5.60;;
32365;SDS011;18837;46.832;16.838;2023-04-07T07:38:43;6.17;;;4.60;;
32365;SDS011;18837;46.832;16.838;2023-04-07T07:41:08;6.47;;;5.30;;
32365;SDS011;18837;46.832;16.838;2023-04-07T07:46:22;8.40;;;6.60;;
32365;SDS011;18837;46.832;16.838;2023-04-07T07:48:50;7.07;;;4.90;;
32365;SDS011;18837;46.832;16.838;2023-04-07T07:51:16;7.37;;;5.50;;
32365;SDS011;18837;46.832;16.838;2023-04-07T07:53:42;6.07;;;5.13;;
32365;SDS011;18837;46.832;16.838;2023-04-07T07:56:09;8.47;;;5.47;;
32365;SDS011;18837;46.832;16.838;2023-04-07T07:58:35;7.43;;;5.97;;
32365;SDS011;18837;46.832;16.838;2023-04-07T08:01:06;9.30;;;5.73;;
32365;SDS011;18837;46.832;16.838;2023-04-07T08:03:31;9.10;;;5.87;;
32365;SDS011;18837;46.832;16.838;2023-04-07T08:05:57;8.07;;;6.33;;
32365;SDS011;18837;46.832;16.838;2023-04-07T08:08:23;8.60;;;5.73;;
32365;SDS011;18837;46.832;16.838;2023-04-07T08:10:48;9.83;;;5.73;;
32365;SDS011;18837;46.832;16.838;2023-04-07T08:13:14;7.97;;;5.63;;
32365;SDS011;18837;46.832;16.838;2023-04-07T08:15:40;9.53;;;5.23;;
32365;SDS011;18837;46.832;16.838;2023-04-07T08:20:59;8.10;;;5.60;;
32365;SDS011;18837;46.832;16.838;2023-04-07T08:23:25;8.83;;;5.90;;
32365;SDS011;18837;46.832;16.838;2023-04-07T08:25:51;8.17;;;6.03;;
32365;SDS011;18837;46.832;16.838;2023-04-07T08:28:17;8.23;;;6.50;;
32365;SDS011;18837;46.832;16.838;2023-04-07T08:30:45;8.63;;;6.60;;
32365;SDS011;18837;46.832;16.838;2023-04-07T08:33:11;6.63;;;5.67;;
32365;SDS011;18837;46.832;16.838;2023-04-07T08:35:41;8.03;;;5.50;;
32365;SDS011;18837;46.832;16.838;2023-04-07T08:38:07;7.83;;;5.37;;
32365;SDS011;18837;46.832;16.838;2023-04-07T08:40:33;7.13;;;5.40;;
32365;SDS011;18837;46.832;16.838;2023-04-07T08:43:00;7.23;;;5.43;;
32365;SDS011;18837;46.832;16.838;2023-04-07T08:45:32;8.97;;;5.80;;
32365;SDS011;18837;46.832;16.838;2023-04-07T08:47:59;6.17;;;5.33;;
32365;SDS011;18837;46.832;16.838;2023-04-07T08:50:30;8.73;;;5.80;;
32365;SDS011;18837;46.832;16.838;2023-04-07T08:53:12;13.93;;;6.17;;
32365;SDS011;18837;46.832;16.838;2023-04-07T08:55:54;11.50;;;6.17;;
32365;SDS011;18837;46.832;16.838;2023-04-07T08:58:21;10.83;;;7.23;;
32365;SDS011;18837;46.832;16.838;2023-04-07T09:00:47;9.93;;;6.07;;
32365;SDS011;18837;46.832;16.838;2023-04-07T09:03:14;10.87;;;6.60;;
32365;SDS011;18837;46.832;16.838;2023-04-07T09:05:43;13.27;;;6.20;;
32365;SDS011;18837;46.832;16.838;2023-04-07T09:08:10;8.53;;;6.50;;
32365;SDS011;18837;46.832;16.838;2023-04-07T09:10:41;10.23;;;6.03;;
32365;SDS011;18837;46.832;16.838;2023-04-07T09:13:07;9.43;;;6.80;;
32365;SDS011;18837;46.832;16.838;2023-04-07T09:15:33;12.50;;;6.80;;
32365;SDS011;18837;46.832;16.838;2023-04-07T09:17:59;10.93;;;6.13;;
32365;SDS011;18837;46.832;16.838;2023-04-07T09:20:25;11.33;;;6.67;;
32365;SDS011;18837;46.832;16.838;2023-04-07T09:22:51;9.07;;;6.03;;
32365;SDS011;18837;46.832;16.838;2023-04-07T09:28:20;9.70;;;6.97;;
32365;SDS011;18837;46.832;16.838;2023-04-07T09:30:52;10.27;;;7.17;;
32365;SDS011;18837;46.832;16.838;2023-04-07T09:33:28;9.30;;;6.73;;
32365;SDS011;18837;46.832;16.838;2023-04-07T09:35:55;10.03;;;6.73;;
32365;SDS011;18837;46.832;16.838;2023-04-07T09:38:20;8.83;;;6.87;;
32365;SDS011;18837;46.832;16.838;2023-04-07T09:40:47;8.00;;;6.03;;
32365;SDS011;18837;46.832;16.838;2023-04-07T09:43:14;10.93;;;6.50;;
32365;SDS011;18837;46.832;16.838;2023-04-07T09:48:17;8.93;;;6.70;;
32365;SDS011;18837;46.832;16.838;2023-04-07T09:50:44;11.37;;;6.87;;
32365;SDS011;18837;46.832;16.838;2023-04-07T09:53:14;10.33;;;6.70;;
32365;SDS011;18837;46.832;16.838;2023-04-07T09:55:41;9.27;;;7.13;;
32365;SDS011;18837;46.832;16.838;2023-04-07T09:58:07;8.60;;;6.57;;
32365;SDS011;18837;46.832;16.838;2023-04-07T10:06:35;8.37;;;5.90;;
32365;SDS011;18837;46.832;16.838;2023-04-07T10:09:01;9.03;;;6.53;;
32365;SDS011;18837;46.832;16.838;2023-04-07T10:11:27;7.53;;;5.80;;
32365;SDS011;18837;46.832;16.838;2023-04-07T10:13:53;8.77;;;7.23;;
32365;SDS011;18837;46.832;16.838;2023-04-07T10:16:19;9.17;;;6.23;;
32365;SDS011;18837;46.832;16.838;2023-04-07T10:18:59;7.77;;;6.60;;
32365;SDS011;18837;46.832;16.838;2023-04-07T10:21:26;9.17;;;6.43;;
32365;SDS011;18837;46.832;16.838;2023-04-07T10:23:56;7.50;;;6.07;;
32365;SDS011;18837;46.832;16.838;2023-04-07T10:26:30;8.73;;;6.47;;
32365;SDS011;18837;46.832;16.838;2023-04-07T10:29:07;8.40;;;6.40;;
32365;SDS011;18837;46.832;16.838;2023-04-07T10:31:36;10.87;;;6.90;;
32365;SDS011;18837;46.832;16.838;2023-04-07T10:34:02;8.30;;;7.17;;
32365;SDS011;18837;46.832;16.838;2023-04-07T10:42:45;12.33;;;6.67;;
32365;SDS011;18837;46.832;16.838;2023-04-07T10:45:11;11.03;;;6.53;;
32365;SDS011;18837;46.832;16.838;2023-04-07T10:50:22;9.60;;;6.40;;
32365;SDS011;18837;46.832;16.838;2023-04-07T10:55:44;8.37;;;6.20;;
32365;SDS011;18837;46.832;16.838;2023-04-07T10:58:14;7.13;;;6.00;;
32365;SDS011;18837;46.832;16.838;2023-04-07T11:00:41;7.50;;;6.37;;
32365;SDS011;18837;46.832;16.838;2023-04-07T11:03:28;9.10;;;5.93;;
32365;SDS011;18837;46.832;16.838;2023-04-07T11:06:04;7.63;;;5.83;;
32365;SDS011;18837;46.832;16.838;2023-04-07T11:08:38;7.83;;;5.97;;
32365;SDS011;18837;46.832;16.838;2023-04-07T11:14:44;8.73;;;6.50;;
32365;SDS011;18837;46.832;16.838;2023-04-07T11:17:13;8.73;;;6.47;;
32365;SDS011;18837;46.832;16.838;2023-04-07T11:19:53;9.60;;;6.43;;
32365;SDS011;18837;46.832;16.838;2023-04-07T11:22:20;7.30;;;6.13;;
32365;SDS011;18837;46.832;16.838;2023-04-07T11:24:46;7.13;;;6.33;;
32365;SDS011;18837;46.832;16.838;2023-04-07T11:27:12;9.43;;;6.80;;
32365;SDS011;18837;46.832;16.838;2023-04-07T11:29:44;7.47;;;5.50;;
32365;SDS011;18837;46.832;16.838;2023-04-07T11:32:10;6.40;;;5.80;;
32365;SDS011;18837;46.832;16.838;2023-04-07T11:34:37;8.37;;;5.90;;
32365;SDS011;18837;46.832;16.838;2023-04-07T11:37:18;8.37;;;5.70;;
32365;SDS011;18837;46.832;16.838;2023-04-07T11:39:54;6.97;;;5.53;;
32365;SDS011;18837;46.832;16.838;2023-04-07T11:42:31;6.77;;;5.57;;
32365;SDS011;18837;46.832;16.838;2023-04-07T11:50:56;7.37;;;5.40;;
32365;SDS011;18837;46.832;16.838;2023-04-07T11:53:33;8.20;;;6.50;;
32365;SDS011;18837;46.832;16.838;2023-04-07T11:58:36;9.00;;;6.47;;
32365;SDS011;18837;46.832;16.838;2023-04-07T12:01:04;9.17;;;6.77;;
32365;SDS011;18837;46.832;16.838;2023-04-07T12:03:53;8.27;;;6.03;;
32365;SDS011;18837;46.832;16.838;2023-04-07T12:06:26;7.80;;;5.70;;
32365;SDS011;18837;46.832;16.838;2023-04-07T12:08:54;6.53;;;5.87;;
32365;SDS011;18837;46.832;16.838;2023-04-07T12:11:20;8.93;;;6.40;;
32365;SDS011;18837;46.832;16.838;2023-04-07T12:13:45;9.17;;;6.50;;
32365;SDS011;18837;46.832;16.838;2023-04-07T12:16:11;8.23;;;6.63;;
32365;SDS011;18837;46.832;16.838;2023-04-07T12:18:46;7.97;;;6.00;;
32365;SDS011;18837;46.832;16.838;2023-04-07T12:24:24;6.80;;;5.97;;
32365;SDS011;18837;46.832;16.838;2023-04-07T12:26:50;7.30;;;6.00;;
32365;SDS011;18837;46.832;16.838;2023-04-07T12:29:15;7.87;;;6.07;;
32365;SDS011;18837;46.832;16.838;2023-04-07T12:31:43;7.10;;;6.20;;
32365;SDS011;18837;46.832;16.838;2023-04-07T12:34:09;8.33;;;6.30;;
32365;SDS011;18837;46.832;16.838;2023-04-07T12:36:41;7.60;;;6.30;;
32365;SDS011;18837;46.832;16.838;2023-04-07T12:39:13;7.17;;;6.43;;
32365;SDS011;18837;46.832;16.838;2023-04-07T12:41:40;8.70;;;6.43;;
32365;SDS011;18837;46.832;16.838;2023-04-07T12:44:06;7.93;;;5.73;;
32365;SDS011;18837;46.832;16.838;2023-04-07T12:46:32;8.67;;;6.43;;
32365;SDS011;18837;46.832;16.838;2023-04-07T12:48:58;7.57;;;5.80;;
32365;SDS011;18837;46.832;16.838;2023-04-07T12:51:25;8.87;;;6.50;;
32365;SDS011;18837;46.832;16.838;2023-04-07T12:57:00;7.33;;;6.10;;
32365;SDS011;18837;46.832;16.838;2023-04-07T12:59:26;7.93;;;6.57;;
32365;SDS011;18837;46.832;16.838;2023-04-07T13:01:52;7.00;;;6.10;;
32365;SDS011;18837;46.832;16.838;2023-04-07T13:04:18;8.60;;;6.73;;
32365;SDS011;18837;46.832;16.838;2023-04-07T13:06:44;8.30;;;6.73;;
32365;SDS011;18837;46.832;16.838;2023-04-07T13:09:09;7.83;;;6.03;;
32365;SDS011;18837;46.832;16.838;2023-04-07T13:11:35;7.50;;;5.27;;
32365;SDS011;18837;46.832;16.838;2023-04-07T13:14:13;8.23;;;6.70;;
32365;SDS011;18837;46.832;16.838;2023-04-07T13:16:39;6.17;;;5.57;;
32365;SDS011;18837;46.832;16.838;2023-04-07T13:19:05;8.67;;;6.57;;
32365;SDS011;18837;46.832;16.838;2023-04-07T13:21:33;7.57;;;6.30;;
32365;SDS011;18837;46.832;16.838;2023-04-07T13:23:58;7.13;;;6.13;;
32365;SDS011;18837;46.832;16.838;2023-04-07T13:26:31;12.00;;;6.47;;
32365;SDS011;18837;46.832;16.838;2023-04-07T13:32:19;8.77;;;5.80;;
32365;SDS011;18837;46.832;16.838;2023-04-07T13:34:58;9.67;;;6.57;;
32365;SDS011;18837;46.832;16.838;2023-04-07T13:37:26;12.00;;;6.63;;
32365;SDS011;18837;46.832;16.838;2023-04-07T13:39:52;8.43;;;6.70;;
32365;SDS011;18837;46.832;16.838;2023-04-07T13:42:18;9.20;;;6.40;;
32365;SDS011;18837;46.832;16.838;2023-04-07T13:44:45;10.43;;;6.33;;
32365;SDS011;18837;46.832;16.838;2023-04-07T13:47:27;9.10;;;6.50;;
32365;SDS011;18837;46.832;16.838;2023-04-07T13:49:54;8.13;;;6.33;;
32365;SDS011;18837;46.832;16.838;2023-04-07T13:52:20;9.07;;;6.53;;
32365;SDS011;18837;46.832;16.838;2023-04-07T13:54:46;8.43;;;6.03;;
32365;SDS011;18837;46.832;16.838;2023-04-07T13:57:11;14.20;;;7.50;;
32365;SDS011;18837;46.832;16.838;2023-04-07T13:59:47;14.90;;;7.83;;
32365;SDS011;18837;46.832;16.838;2023-04-07T14:02:25;8.97;;;6.93;;
32365;SDS011;18837;46.832;16.838;2023-04-07T14:07:50;10.97;;;6.83;;
32365;SDS011;18837;46.832;16.838;2023-04-07T14:10:16;14.37;;;8.00;;
32365;SDS011;18837;46.832;16.838;2023-04-07T14:12:42;13.50;;;7.97;;
32365;SDS011;18837;46.832;16.838;2023-04-07T14:15:08;11.20;;;7.20;;
32365;SDS011;18837;46.832;16.838;2023-04-07T14:17:34;8.67;;;6.70;;
32365;SDS011;18837;46.832;16.838;2023-04-07T14:20:01;8.03;;;6.63;;
32365;SDS011;18837;46.832;16.838;2023-04-07T14:22:35;11.13;;;7.07;;
32365;SDS011;18837;46.832;16.838;2023-04-07T14:25:01;10.73;;;7.73;;
32365;SDS011;18837;46.832;16.838;2023-04-07T14:27:28;8.87;;;7.20;;
32365;SDS011;18837;46.832;16.838;2023-04-07T14:29:54;9.20;;;6.70;;
32365;SDS011;18837;46.832;16.838;2023-04-07T14:32:22;13.30;;;6.93;;
32365;SDS011;18837;46.832;16.838;2023-04-07T14:34:48;9.27;;;7.40;;
32365;SDS011;18837;46.832;16.838;2023-04-07T14:37:32;6.70;;;5.97;;
32365;SDS011;18837;46.832;16.838;2023-04-07T14:43:23;11.60;;;6.63;;
32365;SDS011;18837;46.832;16.838;2023-04-07T14:45:48;8.17;;;6.20;;
32365;SDS011;18837;46.832;16.838;2023-04-07T14:48:14;11.33;;;6.80;;
32365;SDS011;18837;46.832;16.838;2023-04-07T14:50:41;9.23;;;7.00;;
32365;SDS011;18837;46.832;16.838;2023-04-07T14:53:07;8.27;;;6.03;;
32365;SDS011;18837;46.832;16.838;2023-04-07T14:55:32;9.07;;;6.90;;
32365;SDS011;18837;46.832;16.838;2023-04-07T14:58:05;9.63;;;7.10;;
32365;SDS011;18837;46.832;16.838;2023-04-07T15:00:31;10.87;;;7.07;;
32365;SDS011;18837;46.832;16.838;2023-04-07T15:02:56;12.33;;;7.23;;
32365;SDS011;18837;46.832;16.838;2023-04-07T15:05:22;9.50;;;6.47;;
32365;SDS011;18837;46.832;16.838;2023-04-07T15:07:50;12.17;;;7.37;;
32365;SDS011;18837;46.832;16.838;2023-04-07T15:10:16;11.57;;;7.50;;
32365;SDS011;18837;46.832;16.838;2023-04-07T15:15:45;10.87;;;7.07;;
32365;SDS011;18837;46.832;16.838;2023-04-07T15:18:10;9.83;;;6.83;;
32365;SDS011;18837;46.832;16.838;2023-04-07T15:20:36;9.27;;;7.13;;
32365;SDS011;18837;46.832;16.838;2023-04-07T15:23:02;8.87;;;7.33;;
32365;SDS011;18837;46.832;16.838;2023-04-07T15:25:27;8.90;;;7.50;;
32365;SDS011;18837;46.832;16.838;2023-04-07T15:27:53;10.17;;;7.50;;
32365;SDS011;18837;46.832;16.838;2023-04-07T15:30:28;8.83;;;6.87;;
32365;SDS011;18837;46.832;16.838;2023-04-07T15:33:01;8.47;;;7.00;;
32365;SDS011;18837;46.832;16.838;2023-04-07T15:35:28;9.20;;;7.20;;
32365;SDS011;18837;46.832;16.838;2023-04-07T15:37:54;8.87;;;6.87;;
32365;SDS011;18837;46.832;16.838;2023-04-07T15:40:20;9.77;;;7.47;;
32365;SDS011;18837;46.832;16.838;2023-04-07T15:42:46;8.23;;;7.40;;
32365;SDS011;18837;46.832;16.838;2023-04-07T15:45:12;8.57;;;7.50;;
32365;SDS011;18837;46.832;16.838;2023-04-07T15:53:34;8.47;;;6.97;;
32365;SDS011;18837;46.832;16.838;2023-04-07T15:56:00;9.63;;;7.87;;
32365;SDS011;18837;46.832;16.838;2023-04-07T15:58:26;10.47;;;7.83;;
32365;SDS011;18837;46.832;16.838;2023-04-07T16:00:52;8.93;;;7.63;;
32365;SDS011;18837;46.832;16.838;2023-04-07T16:03:18;9.43;;;8.00;;
32365;SDS011;18837;46.832;16.838;2023-04-07T16:05:59;8.77;;;7.40;;
32365;SDS011;18837;46.832;16.838;2023-04-07T16:08:25;10.30;;;7.53;;
32365;SDS011;18837;46.832;16.838;2023-04-07T16:10:51;10.67;;;7.50;;
32365;SDS011;18837;46.832;16.838;2023-04-07T16:13:17;10.07;;;7.73;;
32365;SDS011;18837;46.832;16.838;2023-04-07T16:15:42;10.60;;;7.80;;
32365;SDS011;18837;46.832;16.838;2023-04-07T16:18:09;10.87;;;8.13;;
32365;SDS011;18837;46.832;16.838;2023-04-07T16:26:22;9.43;;;8.23;;
32365;SDS011;18837;46.832;16.838;2023-04-07T16:28:48;8.93;;;7.73;;
32365;SDS011;18837;46.832;16.838;2023-04-07T16:31:14;10.57;;;8.30;;
32365;SDS011;18837;46.832;16.838;2023-04-07T16:33:40;11.70;;;8.60;;
32365;SDS011;18837;46.832;16.838;2023-04-07T16:36:06;10.00;;;8.10;;
32365;SDS011;18837;46.832;16.838;2023-04-07T16:38:32;11.77;;;9.47;;